Dati Storici

Data ora Umidita' aria (%) Temperatura aria (°C) Rad globale (W/m²) Gonioanemometro (°) Tacoanemometro (m/s) Pioggia (mm)
20-10-2012 23:20 93.3 % 12.341 2.202 130.59 0.6 0
20-10-2012 23:10 93.1 % 12.352 2.638 121.926 0.862 0
20-10-2012 23:00 93.4 % 12.746 2.535 110.625 0.608 0
20-10-2012 22:50 93.3 % 12.904 2.035 332.848 -0.01 0
20-10-2012 22:40 94 % 13.326 2.318 343.26 0.257 0
20-10-2012 22:30 94.3 % 13.406 2.292 18.399 0.479 0
20-10-2012 22:20 94.1 % 13.258 2.048 342.129 0.31 0
20-10-2012 22:10 93.8 % 13.028 2.035 331.47 0.328 0
20-10-2012 22:00 93.8 % 13.119 1.92 338.38 0.673 0
20-10-2012 21:50 93.6 % 13.051 1.958 319.404 0.451 0
20-10-2012 21:40 93.2 % 12.891 1.958 196.265 -0.01 0
20-10-2012 21:30 93.3 % 13.029 2.086 1.128 -0.01 0
20-10-2012 21:20 93 % 12.991 1.766 346.392 0.644 0
20-10-2012 21:10 92.9 % 13.074 2.125 356.574 0.312 0
20-10-2012 21:00 92.3 % 12.898 2.151 21.773 0.399 0
20-10-2012 20:50 92 % 12.841 2.074 91.069 0.015 0
20-10-2012 20:40 91.7 % 12.906 1.843 90.635 -0.014 0
20-10-2012 20:30 91.8 % 13.071 2.099 69.957 0.058 0
20-10-2012 20:20 91.5 % 13.134 2.44 65.976 0.319 0
20-10-2012 20:10 91.2 % 13.2 2.004 94.055 -0.018 0

I dati sono presentati in modo automatico a scopo informativo. In seguito a verifica i dati possono subire modifiche o essere invalidati e non riportati negli archivi definitivi.